createdAt,value
2018-04-10T00:01:05.010Z,8.60
2018-04-10T00:03:31.208Z,8.50
2018-04-10T00:05:58.203Z,8.10
2018-04-10T00:08:24.413Z,8.10
2018-04-10T00:10:50.627Z,8.00
2018-04-10T00:13:16.842Z,8.00
2018-04-10T00:15:43.047Z,7.90
2018-04-10T00:18:10.004Z,8.00
2018-04-10T00:20:36.979Z,8.00
2018-04-10T00:23:03.202Z,7.90
2018-04-10T00:25:29.405Z,7.90
2018-04-10T00:27:56.351Z,7.60
2018-04-10T00:30:23.334Z,7.70
2018-04-10T00:32:49.671Z,7.60
2018-04-10T00:35:15.926Z,7.70
2018-04-10T00:37:42.138Z,7.80
2018-04-10T00:40:08.331Z,7.80
2018-04-10T00:42:35.287Z,7.70
2018-04-10T00:45:01.484Z,7.70
2018-04-10T00:47:27.694Z,7.70
2018-04-10T00:49:54.621Z,7.50
2018-04-10T00:52:20.822Z,7.50
2018-04-10T00:54:47.042Z,7.50
2018-04-10T00:57:13.973Z,7.40
2018-04-10T00:59:40.904Z,7.30
2018-04-10T01:02:07.146Z,7.30
2018-04-10T01:04:33.350Z,7.20
2018-04-10T01:06:59.567Z,7.20
2018-04-10T01:09:25.786Z,7.10
2018-04-10T01:11:51.986Z,6.90
2018-04-10T01:14:18.193Z,6.80
2018-04-10T01:16:45.119Z,6.70
2018-04-10T01:19:11.376Z,6.60
2018-04-10T01:21:38.317Z,6.60
2018-04-10T01:24:05.273Z,6.60
2018-04-10T01:26:32.222Z,6.50
2018-04-10T01:28:59.150Z,6.40
2018-04-10T01:31:25.399Z,6.40
2018-04-10T01:33:52.334Z,6.00
2018-04-10T01:36:18.553Z,6.00
2018-04-10T01:38:44.746Z,5.90
2018-04-10T01:41:10.967Z,5.90
2018-04-10T01:43:37.177Z,5.80
2018-04-10T01:46:03.363Z,5.80
2018-04-10T01:48:29.565Z,5.60
2018-04-10T01:50:55.757Z,5.50
2018-04-10T01:53:22.712Z,5.30
2018-04-10T01:55:48.914Z,5.20
2018-04-10T01:58:15.089Z,5.30
2018-04-10T02:00:41.341Z,5.30
2018-04-10T02:03:07.532Z,5.40
2018-04-10T02:05:33.739Z,5.50
2018-04-10T02:08:00.665Z,5.50
2018-04-10T02:10:39.214Z,5.40
2018-04-10T02:13:06.150Z,5.60
2018-04-10T02:15:33.118Z,5.60
2018-04-10T02:17:59.309Z,5.50
2018-04-10T02:20:25.555Z,5.60
2018-04-10T02:22:52.490Z,5.80
2018-04-10T02:25:18.748Z,5.70
2018-04-10T02:27:45.702Z,5.60
2018-04-10T02:30:11.910Z,5.60
2018-04-10T02:32:38.883Z,5.50
2018-04-10T02:35:05.092Z,5.50
2018-04-10T02:37:32.058Z,5.50
2018-04-10T02:39:58.299Z,5.50
2018-04-10T02:42:24.546Z,5.50
2018-04-10T02:44:50.782Z,5.40
2018-04-10T02:47:16.973Z,5.40
2018-04-10T02:49:43.249Z,5.40
2018-04-10T02:52:09.446Z,5.40
2018-04-10T02:54:35.665Z,5.30
2018-04-10T02:57:03.413Z,5.20
2018-04-10T02:59:30.383Z,5.10
2018-04-10T03:01:56.594Z,5.00
2018-04-10T03:04:23.560Z,5.10
2018-04-10T03:06:49.777Z,5.10
2018-04-10T03:09:16.726Z,5.00
2018-04-10T03:11:43.690Z,4.90
2018-04-10T03:14:09.933Z,4.80
2018-04-10T03:16:36.171Z,4.80
2018-04-10T03:19:02.390Z,4.70
2018-04-10T03:21:28.633Z,4.70
2018-04-10T03:23:54.909Z,4.60
2018-04-10T03:26:21.875Z,4.60
2018-04-10T03:28:48.091Z,4.60
2018-04-10T03:31:15.026Z,4.70
2018-04-10T03:33:41.250Z,4.70
2018-04-10T03:36:08.222Z,4.70
2018-04-10T03:38:34.442Z,4.70
2018-04-10T03:41:01.406Z,4.80
2018-04-10T03:43:27.616Z,4.80
2018-04-10T03:45:54.578Z,4.90
2018-04-10T03:48:20.784Z,4.80
2018-04-10T03:50:47.112Z,4.90
2018-04-10T03:53:13.342Z,4.90
2018-04-10T03:55:49.058Z,4.80
2018-04-10T03:58:15.583Z,4.80
2018-04-10T04:00:41.770Z,4.80
2018-04-10T04:03:08.734Z,5.00
2018-04-10T04:05:35.672Z,5.00
2018-04-10T04:08:02.641Z,4.90
2018-04-10T04:10:28.988Z,4.80
2018-04-10T04:12:55.212Z,4.80
2018-04-10T04:15:21.443Z,4.70
2018-04-10T04:17:47.666Z,4.70
2018-04-10T04:20:19.956Z,4.80
2018-04-10T04:22:46.149Z,4.80
2018-04-10T04:25:13.110Z,5.10
2018-04-10T04:27:39.293Z,5.10
2018-04-10T04:30:05.518Z,5.20
2018-04-10T04:32:31.705Z,5.20
2018-04-10T04:34:57.921Z,5.10
2018-04-10T04:37:24.102Z,5.00
2018-04-10T04:39:50.306Z,5.00
2018-04-10T04:42:16.557Z,4.90
2018-04-10T04:44:42.742Z,4.90
2018-04-10T04:47:08.970Z,4.90
2018-04-10T04:49:35.193Z,4.80
2018-04-10T04:52:02.168Z,4.80
2018-04-10T04:54:28.396Z,4.80
2018-04-10T04:56:54.723Z,4.90
2018-04-10T04:59:20.923Z,5.00
2018-04-10T05:01:47.878Z,5.30
2018-04-10T05:04:14.827Z,5.40
2018-04-10T05:06:41.043Z,5.40
2018-04-10T05:09:07.982Z,5.70
2018-04-10T05:11:34.938Z,5.90
2018-04-10T05:14:01.882Z,6.10
2018-04-10T05:16:28.809Z,6.40
2018-04-10T05:18:55.031Z,6.30
2018-04-10T05:21:21.245Z,6.70
2018-04-10T05:23:47.482Z,7.00
2018-04-10T05:26:13.702Z,7.10
2018-04-10T05:28:39.905Z,7.10
2018-04-10T05:31:06.113Z,7.10
2018-04-10T05:33:33.048Z,7.20
2018-04-10T05:35:59.290Z,7.20
2018-04-10T05:38:26.225Z,7.30
2018-04-10T05:40:53.183Z,7.40
2018-04-10T05:43:20.131Z,7.60
2018-04-10T05:45:47.060Z,7.70
2018-04-10T05:48:13.265Z,7.70
2018-04-10T05:50:39.449Z,7.90
2018-04-10T05:53:05.701Z,8.00
2018-04-10T05:55:31.882Z,8.20
2018-04-10T05:57:58.830Z,8.60
2018-04-10T06:00:25.826Z,8.80
2018-04-10T06:02:52.219Z,8.70
2018-04-10T06:05:19.343Z,9.10
2018-04-10T06:07:45.696Z,9.10
2018-04-10T06:10:12.859Z,9.50
2018-04-10T06:12:40.001Z,9.70
2018-04-10T06:15:07.123Z,9.90
2018-04-10T06:17:33.517Z,9.90
2018-04-10T06:19:59.895Z,10.10
2018-04-10T06:22:26.323Z,10.30
2018-04-10T06:24:52.697Z,10.50
2018-04-10T06:27:19.884Z,10.80
2018-04-10T06:29:46.312Z,10.80
2018-04-10T06:32:12.704Z,11.00
2018-04-10T06:34:39.824Z,11.30
2018-04-10T06:37:06.219Z,11.20
2018-04-10T06:39:32.647Z,11.30
2018-04-10T06:41:59.003Z,11.50
2018-04-10T06:44:25.407Z,11.60
2018-04-10T06:46:52.503Z,11.90
2018-04-10T06:49:18.920Z,11.80
2018-04-10T06:51:45.291Z,12.00
2018-04-10T06:54:11.734Z,12.20
2018-04-10T06:56:38.113Z,12.30
2018-04-10T06:59:04.534Z,12.50
2018-04-10T07:01:30.924Z,12.60
2018-04-10T07:03:57.307Z,12.80
2018-04-10T07:06:23.717Z,13.00
2018-04-10T07:08:50.832Z,13.40
2018-04-10T07:11:17.232Z,13.40
2018-04-10T07:13:43.607Z,13.70
2018-04-10T07:16:10.058Z,13.60
2018-04-10T07:18:36.441Z,13.80
2018-04-10T07:21:02.814Z,13.90
2018-04-10T07:23:29.223Z,13.60
2018-04-10T07:25:55.621Z,13.70
2018-04-10T07:28:22.035Z,13.70
2018-04-10T07:30:49.210Z,14.20
2018-04-10T07:33:15.668Z,14.20
2018-04-10T07:35:42.050Z,14.20
2018-04-10T07:38:09.175Z,14.20
2018-04-10T07:40:35.562Z,14.10
2018-04-10T07:43:01.924Z,14.30
2018-04-10T07:45:28.335Z,14.50
2018-04-10T07:47:54.735Z,14.50
2018-04-10T07:50:21.115Z,14.50
2018-04-10T07:52:47.508Z,14.60
2018-04-10T07:55:14.618Z,14.90
2018-04-10T07:57:41.015Z,14.80
2018-04-10T08:00:07.423Z,14.90
2018-04-10T08:02:34.568Z,15.00
2018-04-10T08:05:01.691Z,15.30
2018-04-10T08:07:28.104Z,15.20
2018-04-10T08:09:54.491Z,15.30
2018-04-10T08:12:20.883Z,15.60
2018-04-10T08:14:47.351Z,15.60
2018-04-10T08:17:13.716Z,15.70
2018-04-10T08:19:40.096Z,15.80
2018-04-10T08:22:06.465Z,16.00
2018-04-10T08:24:33.624Z,16.50
2018-04-10T08:27:00.723Z,16.40
2018-04-10T08:29:27.102Z,16.40
2018-04-10T08:31:54.223Z,16.50
2018-04-10T08:34:20.599Z,16.40
2018-04-10T08:36:47.702Z,16.10
2018-04-10T08:39:14.095Z,16.10
2018-04-10T08:41:40.535Z,16.10
2018-04-10T08:44:06.900Z,15.90
2018-04-10T08:46:33.293Z,15.80
2018-04-10T08:48:59.695Z,15.60
2018-04-10T08:51:26.831Z,15.80
2018-04-10T08:53:53.225Z,15.80
2018-04-10T08:56:19.613Z,15.90
2018-04-10T08:58:46.000Z,15.70
2018-04-10T09:01:12.381Z,15.70
2018-04-10T09:03:38.765Z,15.80
2018-04-10T09:06:05.163Z,16.00
2018-04-10T09:08:32.289Z,16.20
2018-04-10T09:10:58.676Z,16.20
2018-04-10T09:13:25.045Z,16.30
2018-04-10T09:15:51.427Z,16.30
2018-04-10T09:18:17.806Z,16.30
2018-04-10T09:20:44.193Z,16.40
2018-04-10T09:23:11.455Z,16.50
2018-04-10T09:25:37.858Z,16.50
2018-04-10T09:28:04.967Z,16.30
2018-04-10T09:30:31.343Z,16.20
2018-04-10T09:32:58.496Z,16.40
2018-04-10T09:35:25.640Z,16.30
2018-04-10T09:37:52.031Z,16.30
2018-04-10T09:40:18.409Z,16.60
2018-04-10T09:42:44.798Z,16.40
2018-04-10T09:45:11.187Z,16.50
2018-04-10T09:47:38.297Z,16.40
2018-04-10T09:50:04.694Z,16.30
2018-04-10T09:52:31.091Z,16.40
2018-04-10T09:54:57.489Z,16.60
2018-04-10T09:57:23.851Z,16.80
2018-04-10T09:59:50.230Z,16.80
2018-04-10T10:02:16.608Z,16.80
2018-04-10T10:04:43.031Z,17.30
2018-04-10T10:07:09.428Z,17.50
2018-04-10T10:09:35.842Z,17.70
2018-04-10T10:12:02.980Z,18.50
2018-04-10T10:14:29.365Z,18.40
2018-04-10T10:16:55.734Z,18.70
2018-04-10T10:19:22.159Z,18.60
2018-04-10T10:21:48.524Z,18.60
2018-04-10T10:24:15.769Z,18.70
2018-04-10T10:26:42.132Z,18.60
2018-04-10T10:29:08.547Z,18.90
2018-04-10T10:31:35.699Z,19.10
2018-04-10T10:34:02.842Z,19.20
2018-04-10T10:36:29.249Z,19.10
2018-04-10T10:38:55.627Z,19.50
2018-04-10T10:41:22.760Z,19.40
2018-04-10T10:43:49.150Z,19.30
2018-04-10T10:46:15.558Z,19.10
2018-04-10T10:48:41.955Z,18.60
2018-04-10T10:51:08.343Z,18.60
2018-04-10T10:53:34.785Z,18.70
2018-04-10T10:56:01.171Z,18.70
2018-04-10T10:58:28.303Z,18.50
2018-04-10T11:00:54.701Z,18.40
2018-04-10T11:03:21.076Z,18.50
2018-04-10T11:05:47.552Z,18.40
2018-04-10T11:08:13.953Z,18.60
2018-04-10T11:10:41.098Z,17.90
2018-04-10T11:13:07.476Z,17.90
2018-04-10T11:15:33.896Z,17.70
2018-04-10T11:18:00.320Z,17.70
2018-04-10T11:20:27.480Z,17.70
2018-04-10T11:22:53.884Z,17.70
2018-04-10T11:25:20.259Z,17.70
2018-04-10T11:27:46.644Z,18.00
2018-04-10T11:30:13.051Z,18.50
2018-04-10T11:32:39.586Z,18.60
2018-04-10T11:35:05.966Z,19.00
2018-04-10T11:37:32.400Z,19.20
2018-04-10T11:39:58.783Z,19.40
2018-04-10T11:42:25.176Z,19.50
2018-04-10T11:44:52.348Z,19.60
2018-04-10T11:47:18.732Z,19.60
2018-04-10T11:49:45.816Z,19.70
2018-04-10T11:52:12.921Z,20.10
2018-04-10T11:54:39.337Z,20.00
2018-04-10T11:57:05.719Z,20.40
2018-04-10T11:59:32.109Z,20.60
2018-04-10T12:01:58.546Z,20.60
2018-04-10T12:04:24.923Z,20.20
2018-04-10T12:06:51.306Z,19.90
2018-04-10T12:09:17.722Z,20.50
2018-04-10T12:11:44.822Z,20.50
2018-04-10T12:14:11.216Z,20.50
2018-04-10T12:16:37.596Z,20.40
2018-04-10T12:19:03.995Z,20.20
2018-04-10T12:21:30.364Z,20.20
2018-04-10T12:23:56.798Z,20.10
2018-04-10T12:26:23.192Z,20.20
2018-04-10T12:28:49.579Z,20.70
2018-04-10T12:31:15.956Z,20.90
2018-04-10T12:33:42.359Z,20.60
2018-04-10T12:36:09.479Z,19.90
2018-04-10T12:38:35.871Z,19.80
2018-04-10T12:41:02.251Z,20.00
2018-04-10T12:43:28.651Z,20.00
2018-04-10T12:45:55.054Z,19.90
2018-04-10T12:48:22.240Z,19.70
2018-04-10T12:50:48.747Z,19.60
2018-04-10T12:53:15.210Z,19.90
2018-04-10T12:55:41.612Z,20.00
2018-04-10T12:58:08.037Z,20.10
2018-04-10T13:00:35.151Z,19.90
2018-04-10T13:03:01.584Z,19.80
2018-04-10T13:05:28.152Z,20.00
2018-04-10T13:07:55.287Z,20.10
2018-04-10T13:10:21.720Z,20.00
2018-04-10T13:12:48.136Z,20.40
2018-04-10T13:15:14.553Z,20.30
2018-04-10T13:17:40.933Z,20.50
2018-04-10T13:20:07.354Z,20.40
2018-04-10T13:22:33.735Z,20.00
2018-04-10T13:25:00.112Z,19.90
2018-04-10T13:27:27.252Z,19.80
2018-04-10T13:29:53.631Z,19.80
2018-04-10T13:32:20.786Z,19.80
2018-04-10T13:34:47.198Z,19.70
2018-04-10T13:37:13.560Z,19.50
2018-04-10T13:39:40.683Z,19.30
2018-04-10T13:42:07.089Z,19.20
2018-04-10T13:44:33.508Z,19.40
2018-04-10T13:46:59.880Z,19.50
2018-04-10T13:49:26.279Z,19.40
2018-04-10T13:51:52.659Z,19.30
2018-04-10T13:54:19.072Z,19.30
2018-04-10T13:56:45.448Z,19.50
2018-04-10T13:59:12.555Z,19.30
2018-04-10T14:01:38.975Z,19.20
2018-04-10T14:04:05.424Z,19.30
2018-04-10T14:06:31.811Z,19.20
2018-04-10T14:08:58.207Z,19.20
2018-04-10T14:11:24.616Z,19.30
2018-04-10T14:13:50.994Z,19.30
2018-04-10T14:16:18.141Z,19.40
2018-04-10T14:18:45.255Z,19.40
2018-04-10T14:21:11.664Z,19.40
2018-04-10T14:23:38.030Z,19.40
2018-04-10T14:26:04.440Z,19.50
2018-04-10T14:28:30.819Z,19.30
2018-04-10T14:30:57.242Z,19.40
2018-04-10T14:33:23.640Z,19.40
2018-04-10T14:35:50.060Z,19.50
2018-04-10T14:38:16.463Z,19.70
2018-04-10T14:40:43.622Z,19.50
2018-04-10T14:43:10.743Z,19.30
2018-04-10T14:45:37.118Z,19.20
2018-04-10T14:48:03.557Z,19.10
2018-04-10T14:50:29.955Z,19.00
2018-04-10T14:52:56.420Z,19.00
2018-04-10T14:55:23.563Z,18.90
2018-04-10T14:57:50.719Z,18.70
2018-04-10T15:00:17.838Z,18.70
2018-04-10T15:02:44.261Z,18.70
2018-04-10T15:05:13.537Z,19.00
2018-04-10T15:07:41.285Z,18.80
2018-04-10T15:10:07.727Z,18.80
2018-04-10T15:12:36.547Z,18.80
2018-04-10T15:15:05.826Z,18.60
2018-04-10T15:17:34.901Z,18.70
2018-04-10T15:20:04.035Z,18.60
2018-04-10T15:22:33.276Z,18.70
2018-04-10T15:25:03.508Z,18.60
2018-04-10T15:27:32.723Z,18.50
2018-04-10T15:29:59.852Z,18.50
2018-04-10T15:32:26.985Z,18.40
2018-04-10T15:34:53.379Z,18.30
2018-04-10T15:37:19.755Z,18.20
2018-04-10T15:39:46.158Z,18.30
2018-04-10T15:42:12.588Z,18.20
2018-04-10T15:44:39.121Z,18.20
2018-04-10T15:47:05.562Z,18.10
2018-04-10T15:49:32.651Z,18.10
2018-04-10T15:51:59.056Z,18.10
2018-04-10T15:54:25.523Z,18.10
2018-04-10T15:56:51.916Z,17.90
2018-04-10T15:59:18.295Z,17.90
2018-04-10T16:01:44.717Z,17.90
2018-04-10T16:04:11.084Z,17.90
2018-04-10T16:06:38.219Z,17.80
2018-04-10T16:09:05.347Z,17.70
2018-04-10T16:11:31.729Z,17.70
2018-04-10T16:13:58.168Z,17.60
2018-04-10T16:16:24.594Z,17.50
2018-04-10T16:18:50.983Z,17.50
2018-04-10T16:21:17.357Z,17.50
2018-04-10T16:23:44.502Z,17.30
2018-04-10T16:26:11.603Z,17.30
2018-04-10T16:28:41.713Z,17.20
2018-04-10T16:31:08.421Z,17.20
2018-04-10T16:33:34.834Z,17.10
2018-04-10T16:36:01.199Z,17.00
2018-04-10T16:38:27.563Z,17.00
2018-04-10T16:40:53.939Z,16.90
2018-04-10T16:43:21.068Z,16.70
2018-04-10T16:45:47.483Z,16.60
2018-04-10T16:48:13.924Z,16.60
2018-04-10T16:50:40.319Z,16.50
2018-04-10T16:53:06.714Z,16.50
2018-04-10T16:55:33.081Z,16.40
2018-04-10T16:57:59.462Z,16.30
2018-04-10T17:00:25.850Z,16.20
2018-04-10T17:02:52.247Z,16.10
2018-04-10T17:05:18.636Z,16.00
2018-04-10T17:07:45.033Z,16.00
2018-04-10T17:10:12.169Z,15.80
2018-04-10T17:12:38.559Z,15.70
2018-04-10T17:15:05.008Z,15.70
2018-04-10T17:17:31.395Z,15.60
2018-04-10T17:19:58.575Z,15.40
2018-04-10T17:22:24.944Z,15.30
2018-04-10T17:24:51.340Z,15.30
2018-04-10T17:27:17.711Z,15.20
2018-04-10T17:29:44.169Z,15.10
2018-04-10T17:32:10.578Z,15.00
2018-04-10T17:34:37.004Z,14.80
2018-04-10T17:37:03.429Z,14.80
2018-04-10T17:39:29.798Z,14.70
2018-04-10T17:41:56.215Z,14.60
2018-04-10T17:44:22.593Z,14.50
2018-04-10T17:46:49.019Z,14.40
2018-04-10T17:49:16.164Z,14.30
2018-04-10T17:51:43.324Z,14.30
2018-04-10T17:54:10.465Z,14.20
2018-04-10T17:56:37.620Z,14.10
2018-04-10T17:59:04.747Z,14.10
2018-04-10T18:01:31.145Z,14.00
2018-04-10T18:03:57.536Z,14.00
2018-04-10T18:06:26.543Z,14.10
2018-04-10T18:08:53.743Z,14.00
2018-04-10T18:11:20.158Z,14.00
2018-04-10T18:13:53.648Z,14.00
2018-04-10T18:16:20.039Z,14.00
2018-04-10T18:18:46.463Z,14.10
2018-04-10T18:21:13.597Z,13.90
2018-04-10T18:23:40.032Z,13.80
2018-04-10T18:26:06.478Z,13.80
2018-04-10T18:28:32.865Z,13.80
2018-04-10T18:30:59.245Z,13.80
2018-04-10T18:33:25.656Z,13.80
2018-04-10T18:35:52.039Z,13.90
2018-04-10T18:38:21.167Z,13.80
2018-04-10T18:40:47.662Z,13.70
2018-04-10T18:43:14.060Z,13.80
2018-04-10T18:45:40.423Z,13.80
2018-04-10T18:48:07.571Z,13.80
2018-04-10T18:50:33.934Z,13.70
2018-04-10T18:53:01.099Z,13.60
2018-04-10T18:55:27.479Z,13.50
2018-04-10T18:57:53.894Z,13.50
2018-04-10T19:00:20.330Z,13.50
2018-04-10T19:02:46.720Z,13.40
2018-04-10T19:05:13.875Z,13.20
2018-04-10T19:07:41.066Z,13.10
2018-04-10T19:10:07.506Z,13.00
2018-04-10T19:12:33.929Z,12.90
2018-04-10T19:15:00.359Z,12.90
2018-04-10T19:17:26.778Z,12.90
2018-04-10T19:19:53.231Z,13.00
2018-04-10T19:22:19.733Z,13.00
2018-04-10T19:24:46.904Z,13.30
2018-04-10T19:27:13.339Z,13.20
2018-04-10T19:29:39.725Z,13.30
2018-04-10T19:32:06.144Z,13.40
2018-04-10T19:34:32.582Z,13.50
2018-04-10T19:36:59.010Z,13.50
2018-04-10T19:39:25.448Z,13.50
2018-04-10T19:41:51.835Z,13.50
2018-04-10T19:44:18.253Z,13.60
2018-04-10T19:46:45.375Z,13.60
2018-04-10T19:49:11.799Z,13.50
2018-04-10T19:51:38.181Z,13.40
2018-04-10T19:54:05.365Z,13.10
2018-04-10T19:56:31.751Z,13.00
2018-04-10T19:58:58.896Z,12.80
2018-04-10T20:01:25.297Z,12.80
2018-04-10T20:03:53.873Z,12.80
2018-04-10T20:06:20.275Z,12.70
2018-04-10T20:08:47.425Z,12.70
2018-04-10T20:11:14.570Z,12.60
2018-04-10T20:13:41.765Z,12.50
2018-04-10T20:16:08.167Z,12.50
2018-04-10T20:18:34.691Z,12.50
2018-04-10T20:21:02.612Z,12.40
2018-04-10T20:23:29.900Z,12.20
2018-04-10T20:25:56.344Z,12.10
2018-04-10T20:28:22.739Z,12.20
2018-04-10T20:30:54.879Z,12.20
2018-04-10T20:33:22.360Z,12.20
2018-04-10T20:35:49.530Z,12.00
2018-04-10T20:38:15.919Z,11.90
2018-04-10T20:40:42.311Z,12.00
2018-04-10T20:43:08.754Z,11.90
2018-04-10T20:45:35.880Z,11.70
2018-04-10T20:48:02.447Z,11.60
2018-04-10T20:53:38.892Z,11.50
2018-04-10T20:56:05.340Z,11.40
2018-04-10T20:58:31.725Z,11.30
2018-04-10T21:00:58.860Z,11.10
2018-04-10T21:03:25.984Z,11.00
2018-04-10T21:05:52.435Z,10.90
2018-04-10T21:08:18.846Z,10.90
2018-04-10T21:10:45.233Z,10.80
2018-04-10T21:13:12.369Z,10.50
2018-04-10T21:15:39.502Z,10.40
2018-04-10T21:18:05.909Z,10.40
2018-04-10T21:20:32.280Z,10.30
2018-04-10T21:22:58.682Z,10.30
2018-04-10T21:25:25.056Z,10.30
2018-04-10T21:27:52.191Z,10.20
2018-04-10T21:30:18.563Z,10.20
2018-04-10T21:32:44.962Z,10.20
2018-04-10T21:35:11.392Z,10.20
2018-04-10T21:37:37.804Z,10.20
2018-04-10T21:40:04.231Z,10.20
2018-04-10T21:42:36.628Z,10.20
2018-04-10T21:45:03.040Z,10.20
2018-04-10T21:47:29.455Z,10.20
2018-04-10T21:49:55.823Z,10.20
2018-04-10T21:52:22.244Z,10.10
2018-04-10T21:54:48.623Z,10.10
2018-04-10T21:57:15.747Z,10.00
2018-04-10T21:59:42.103Z,10.00
2018-04-10T22:02:09.238Z,10.00
2018-04-10T22:04:36.359Z,10.00
2018-04-10T22:07:02.722Z,9.90
2018-04-10T22:09:29.149Z,10.00
2018-04-10T22:11:55.503Z,10.10
2018-04-10T22:14:22.001Z,10.10
2018-04-10T22:16:48.378Z,10.10
2018-04-10T22:19:15.472Z,10.10
2018-04-10T22:21:41.869Z,10.00
2018-04-10T22:24:08.992Z,10.10
2018-04-10T22:26:35.371Z,10.00
2018-04-10T22:29:01.739Z,10.10
2018-04-10T22:31:28.145Z,10.00
2018-04-10T22:33:54.489Z,10.00
2018-04-10T22:36:20.909Z,10.00
2018-04-10T22:38:47.275Z,10.00
2018-04-10T22:41:13.674Z,10.00
2018-04-10T22:43:40.065Z,10.00
2018-04-10T22:46:07.233Z,10.00
2018-04-10T22:48:33.650Z,9.90
2018-04-10T22:51:00.784Z,9.90
2018-04-10T22:53:27.931Z,9.90
2018-04-10T22:55:54.349Z,9.80
2018-04-10T22:58:20.756Z,9.80
2018-04-10T23:00:49.119Z,9.70
2018-04-10T23:03:15.502Z,9.60
2018-04-10T23:05:41.898Z,9.60
2018-04-10T23:08:08.260Z,9.60
2018-04-10T23:10:34.673Z,9.60
2018-04-10T23:13:01.044Z,9.60
2018-04-10T23:15:32.247Z,9.40
2018-04-10T23:17:58.628Z,9.30
2018-04-10T23:20:25.023Z,9.10
2018-04-10T23:22:51.408Z,9.00
2018-04-10T23:25:17.784Z,8.90
2018-04-10T23:27:44.960Z,8.70
2018-04-10T23:30:12.083Z,8.60
2018-04-10T23:32:39.219Z,8.50
2018-04-10T23:35:05.594Z,8.50
2018-04-10T23:37:34.706Z,8.40
2018-04-10T23:40:01.302Z,8.30
2018-04-10T23:42:28.451Z,8.10
2018-04-10T23:44:55.636Z,8.10
2018-04-10T23:47:22.016Z,8.00
2018-04-10T23:49:48.392Z,8.10
2018-04-10T23:52:14.779Z,8.10
2018-04-10T23:54:41.150Z,8.10
2018-04-10T23:57:08.290Z,8.10
2018-04-10T23:59:35.393Z,8.30
